Dallas Fort Worth International Airport
KDFW : now visible

Airfield :











YOU CAN JOIN US ON...

 
LOGIN :

Register | Disclaimer

   EN    FR    IT 

 









Legend :    VFR   Marginal VFR   IFR   Intensive IFR   Very Intensive IFR
Visi :
Ceiling :
>= 8 km
>= 3000ft
5 to 8 km
1000 to 3000 ft
1500m to 5 km
500 to 1000 ft
800 to 1500m
200 to 500 ft
< 800m
< 200 ft
Symbols :   Thunderstorms  Fog  Heavy snow  Heavy precipitations  Wind > 20 kt






- Airport Elevation : 607 ft
- IATA code : DFW


KDFW - Dallas Fort Worth International

CURRENT METAR :
  • 181553Z 36016KT 10SM FEW025 FEW250 12/06 A3025 RMK AO2 PK WND 36031/1532 SLP243 T01170061 $

EXPIRED METARs :
  • 181453Z 33015KT 10SM FEW250 12/08 A3022 RMK AO2 SLP230 T01170078 53036 $
  • 181353Z 33013KT 10SM FEW070 FEW250 12/09 A3018 RMK AO2 SLP216 T01170094 $

TAF KDFW
Valid from the 18 at 15:00 until the 19 at 18:00 UTC


181458Z 1815/1918 34016G26KT P6SM FEW250
FM190100 36008KT P6SM SKC



MET'MAP, your aeronautical weather chart ! - Copyright ORBIFLY December 2007 - Disclaimer

ORBIFLY MET'MAP TEAM :

Programming & Development : Alexandra Zaïnal
Concept & original design : Baudouin d'Aumeries
Assistance for programming : Marc-Olivier Méhu
Technical & hardware support : Manuel Goepfert

Contact : metmap@orbifly.com




SOURCES & CREDITS :

   NOAA       Earth
Advisory